Time;durP1;ratioP1;P1;durP2;ratioP2;P2;SDS_P1;SDS_P2;PMS_P1;PMS_P2;Temp;Humidity;BMP_temperature;BMP_pressure;BME280_temperature;BME280_humidity;BME280_pressure;Samples;Min_cycle;Max_cycle;Signal;HPM_P1;HPM_P2
2023/07/23 00:01:26;;;;;;;10.85;4.25;;;24.70;97.30;;;;;;7345066;19;19919;-73
2023/07/23 00:03:52;;;;;;;9.88;3.95;;;24.70;97.30;;;;;;7396118;19;19911;-73
2023/07/23 00:06:18;;;;;;;12.27;4.05;;;24.80;97.30;;;;;;7397269;19;20283;-73
2023/07/23 00:08:44;;;;;;;14.13;4.28;;;24.70;97.30;;;;;;7398775;19;19924;-73
2023/07/23 00:11:09;;;;;;;12.30;4.10;;;24.70;97.60;;;;;;7395605;19;19921;-73
2023/07/23 00:13:35;;;;;;;10.43;3.83;;;24.70;97.70;;;;;;7368121;19;19918;-73
2023/07/23 00:16:01;;;;;;;10.25;4.18;;;24.70;97.80;;;;;;7400339;19;19982;-72
2023/07/23 00:18:26;;;;;;;10.65;3.63;;;24.60;98.20;;;;;;7396657;19;19915;-73
2023/07/23 00:20:52;;;;;;;8.93;3.75;;;24.60;98.20;;;;;;7398413;19;19918;-72
2023/07/23 00:23:18;;;;;;;12.45;4.15;;;24.60;98.10;;;;;;7395492;19;19927;-72
2023/07/23 00:25:44;;;;;;;10.93;4.05;;;24.60;98.20;;;;;;7398686;19;19914;-72
2023/07/23 00:28:10;;;;;;;11.20;4.13;;;24.60;98.30;;;;;;7395600;19;19935;-73
2023/07/23 00:30:35;;;;;;;10.13;4.00;;;24.60;98.50;;;;;;7396378;19;19922;-72
2023/07/23 00:33:01;;;;;;;9.02;3.88;;;24.60;98.70;;;;;;7398851;19;20818;-72
2023/07/23 00:35:27;;;;;;;11.05;3.90;;;24.60;98.70;;;;;;7396965;19;20691;-72
2023/07/23 00:37:53;;;;;;;9.73;4.22;;;24.60;98.80;;;;;;7398917;19;19918;-72
2023/07/23 00:40:18;;;;;;;11.55;4.00;;;24.60;99.00;;;;;;7394416;19;19938;-72
2023/07/23 00:42:44;;;;;;;14.65;4.78;;;24.50;99.10;;;;;;7397857;19;19919;-73
2023/07/23 00:45:10;;;;;;;8.30;3.80;;;24.50;99.20;;;;;;7396984;19;19921;-73
2023/07/23 00:47:36;;;;;;;7.15;4.03;;;24.60;99.20;;;;;;7397565;19;19914;-72
2023/07/23 00:50:03;;;;;;;11.30;3.85;;;24.50;99.30;;;;;;7397724;19;19982;-72
2023/07/23 00:52:29;;;;;;;9.55;3.83;;;24.50;99.30;;;;;;7395677;19;19928;-72
2023/07/23 00:54:55;;;;;;;9.77;4.05;;;24.50;99.40;;;;;;7397936;19;19919;-72
2023/07/23 00:57:21;;;;;;;9.57;4.20;;;24.50;99.50;;;;;;7395279;19;19914;-72
2023/07/23 00:59:47;;;;;;;11.65;3.83;;;24.50;99.60;;;;;;7399606;19;20000;-72
2023/07/23 01:02:13;;;;;;;;;;;24.40;99.90;;;;;;7398480;19;19926;-73
2023/07/23 01:04:38;;;;;;;7.75;4.10;;;24.40;99.90;;;;;;7399015;19;19925;-73
2023/07/23 01:07:07;;;;;;;11.40;4.47;;;24.40;99.90;;;;;;7396078;19;19990;-72
2023/07/23 01:09:34;;;;;;;7.82;4.32;;;24.50;99.90;;;;;;7398423;19;20354;-72
2023/07/23 01:12:02;;;;;;;9.73;4.05;;;24.50;99.90;;;;;;7399115;19;19907;-73
2023/07/23 01:14:29;;;;;;;11.00;3.80;;;24.50;99.90;;;;;;7396182;19;19910;-73
2023/07/23 01:16:57;;;;;;;12.20;4.68;;;24.40;99.90;;;;;;7397130;19;19917;-72
2023/07/23 01:19:26;;;;;;;9.40;3.65;;;24.50;99.90;;;;;;7397511;19;19980;-73
2023/07/23 01:22:05;;;;;;;11.07;4.68;;;24.50;99.90;;;;;;7394975;19;19979;-73
2023/07/23 01:24:31;;;;;;;8.50;4.05;;;24.40;99.90;;;;;;7398284;19;19918;-73
2023/07/23 01:26:57;;;;;;;10.13;4.03;;;24.40;99.90;;;;;;7396936;19;20401;-72
2023/07/23 01:29:23;;;;;;;9.02;3.90;;;24.30;99.90;;;;;;7395251;19;19938;-73
2023/07/23 01:31:48;;;;;;;9.20;4.10;;;24.30;99.90;;;;;;7396616;19;19915;-73
2023/07/23 01:34:14;;;;;;;12.50;4.30;;;24.30;99.90;;;;;;7400462;19;19919;-73
2023/07/23 01:36:40;;;;;;;11.38;4.28;;;24.30;99.90;;;;;;7402692;19;19926;-72
2023/07/23 01:39:06;;;;;;;11.90;4.53;;;24.30;99.90;;;;;;7404216;19;20259;-72
2023/07/23 01:41:32;;;;;;;10.68;3.92;;;24.40;99.90;;;;;;7402696;19;19921;-72
2023/07/23 01:43:59;;;;;;;11.93;4.65;;;24.40;99.90;;;;;;7404560;19;19918;-73
2023/07/23 01:46:25;;;;;;;11.02;4.55;;;24.30;99.90;;;;;;7399506;19;19922;-74
2023/07/23 01:48:51;;;;;;;12.93;4.25;;;24.30;99.90;;;;;;7404956;19;19914;-74
2023/07/23 01:51:17;;;;;;;11.20;4.57;;;24.30;99.90;;;;;;7400183;19;20011;-73
2023/07/23 01:53:42;;;;;;;9.32;3.90;;;24.30;99.90;;;;;;7402120;19;19926;-73
2023/07/23 01:56:08;;;;;;;10.60;4.28;;;24.30;99.90;;;;;;7397705;19;20134;-73
2023/07/23 01:58:34;;;;;;;9.45;4.47;;;24.30;99.90;;;;;;7403481;19;20274;-73
2023/07/23 02:01:00;;;;;;;8.18;3.97;;;24.30;99.90;;;;;;7403895;19;20439;-73
2023/07/23 02:03:26;;;;;;;10.27;4.30;;;24.30;99.90;;;;;;7401056;19;19922;-73
2023/07/23 02:06:00;;;;;;;12.43;4.53;;;24.30;99.90;;;;;;7401003;19;19918;-74
2023/07/23 02:08:28;;;;;;;8.10;3.92;;;24.30;99.90;;;;;;7400535;19;19935;-74
2023/07/23 02:10:59;;;;;;;9.63;3.90;;;24.30;99.90;;;;;;7402462;19;19970;-73
2023/07/23 02:13:25;;;;;;;11.95;4.07;;;24.30;99.90;;;;;;7403074;19;19922;-73
2023/07/23 02:15:51;;;;;;;8.90;4.07;;;24.20;99.90;;;;;;7402308;19;19946;-75
2023/07/23 02:18:18;;;;;;;11.55;3.88;;;24.20;99.90;;;;;;7403036;19;19918;-73
2023/07/23 02:20:43;;;;;;;11.50;4.10;;;24.30;99.90;;;;;;7401872;19;19918;-73
2023/07/23 02:23:09;;;;;;;9.88;3.53;;;24.30;99.90;;;;;;7400362;19;19953;-73
2023/07/23 02:25:39;;;;;;;9.48;4.05;;;24.30;99.90;;;;;;7401920;19;19915;-73
2023/07/23 02:28:08;;;;;;;8.57;4.15;;;24.30;99.90;;;;;;7400496;19;20291;-73
2023/07/23 02:30:34;;;;;;;10.10;3.95;;;24.20;99.90;;;;;;7403079;19;20373;-73
2023/07/23 02:32:59;;;;;;;9.70;4.00;;;24.20;99.90;;;;;;7404109;19;19915;-73
2023/07/23 02:35:25;;;;;;;11.43;4.47;;;24.20;99.90;;;;;;7402466;19;19915;-74
2023/07/23 02:37:51;;;;;;;9.95;4.30;;;24.20;99.90;;;;;;7403310;19;19922;-74
2023/07/23 02:40:16;;;;;;;10.35;4.30;;;24.30;99.90;;;;;;7401482;19;19914;-74
2023/07/23 02:42:42;;;;;;;10.70;4.65;;;24.20;99.90;;;;;;7403963;19;19918;-73
2023/07/23 02:45:08;;;;;;;12.07;4.68;;;24.20;99.90;;;;;;7400086;19;19918;-73
2023/07/23 02:47:34;;;;;;;12.05;4.57;;;24.10;99.90;;;;;;7401190;19;20251;-72
2023/07/23 02:50:00;;;;;;;9.68;4.68;;;24.10;99.90;;;;;;7399870;19;20043;-73
2023/07/23 02:52:26;;;;;;;12.90;4.97;;;24.10;99.90;;;;;;7368956;19;20732;-73
2023/07/23 02:54:51;;;;;;;12.07;4.78;;;24.10;99.90;;;;;;7402334;19;19919;-74
2023/07/23 02:57:17;;;;;;;9.52;4.93;;;24.10;99.90;;;;;;7402559;19;19923;-75
2023/07/23 02:59:43;;;;;;;12.68;5.07;;;24.10;99.90;;;;;;7402652;19;19918;-73
2023/07/23 03:02:09;;;;;;;9.13;5.10;;;24.10;99.90;;;;;;7400848;19;19922;-73
2023/07/23 03:04:34;;;;;;;9.07;5.30;;;24.00;99.90;;;;;;7403193;19;19929;-74
2023/07/23 03:07:00;;;;;;;11.00;4.93;;;24.00;99.90;;;;;;7404174;19;20010;-73
2023/07/23 03:09:27;;;;;;;10.63;4.43;;;24.00;99.90;;;;;;7401678;19;19920;-73
2023/07/23 03:11:53;;;;;;;12.75;4.90;;;24.00;99.90;;;;;;7400652;19;20347;-73
2023/07/23 03:14:19;;;;;;;9.05;4.72;;;24.00;99.90;;;;;;7401312;19;19911;-73
2023/07/23 03:16:44;;;;;;;11.45;4.80;;;24.00;99.90;;;;;;7400505;19;19914;-74
2023/07/23 03:19:11;;;;;;;10.07;4.80;;;23.90;99.90;;;;;;7400451;19;19922;-73
2023/07/23 03:21:36;;;;;;;8.68;4.50;;;23.90;99.90;;;;;;7400229;19;19922;-73
2023/07/23 03:24:02;;;;;;;14.45;4.93;;;23.90;99.90;;;;;;7402036;19;19923;-73
2023/07/23 03:26:28;;;;;;;9.77;4.82;;;24.00;99.90;;;;;;7401937;19;19918;-73
2023/07/23 03:28:54;;;;;;;9.10;5.00;;;24.00;99.90;;;;;;7402647;19;20007;-73
2023/07/23 03:31:20;;;;;;;12.68;5.72;;;24.00;99.90;;;;;;7401981;19;19911;-73
2023/07/23 03:33:45;;;;;;;12.30;4.75;;;24.00;99.90;;;;;;7399666;19;20077;-73
2023/07/23 03:36:11;;;;;;;12.73;5.18;;;24.00;99.90;;;;;;7401124;19;19919;-73
2023/07/23 03:38:37;;;;;;;10.50;5.30;;;24.00;99.90;;;;;;7402632;19;19925;-73
2023/07/23 03:41:03;;;;;;;10.73;4.85;;;23.90;99.90;;;;;;7398808;19;20279;-73
2023/07/23 03:43:29;;;;;;;9.65;5.05;;;23.90;99.90;;;;;;7400838;19;19918;-73
2023/07/23 03:45:54;;;;;;;16.00;5.72;;;23.90;99.90;;;;;;7401329;19;19918;-73
2023/07/23 03:48:20;;;;;;;11.55;5.50;;;23.90;99.90;;;;;;7400414;19;19922;-73
2023/07/23 03:50:46;;;;;;;14.13;5.38;;;23.90;99.90;;;;;;7401137;19;19927;-73
2023/07/23 03:53:12;;;;;;;14.48;5.07;;;23.90;99.90;;;;;;7399261;19;20641;-73
2023/07/23 03:55:37;;;;;;;10.10;4.75;;;23.90;99.90;;;;;;7401565;19;19911;-73
2023/07/23 03:58:03;;;;;;;12.80;5.63;;;23.90;99.90;;;;;;7397597;19;19942;-72
2023/07/23 04:00:29;;;;;;;16.40;5.85;;;23.80;99.90;;;;;;7399197;19;20271;-73
2023/07/23 04:02:55;;;;;;;10.93;5.32;;;23.90;99.90;;;;;;7400685;19;19922;-73
2023/07/23 04:05:20;;;;;;;9.18;4.95;;;23.80;99.90;;;;;;7399114;19;19923;-73
2023/07/23 04:07:46;;;;;;;8.52;5.00;;;23.80;99.90;;;;;;7400670;19;19927;-73
2023/07/23 04:10:12;;;;;;;11.15;5.75;;;23.80;99.90;;;;;;7397160;19;19919;-73
2023/07/23 04:12:38;;;;;;;12.80;5.68;;;23.90;99.90;;;;;;7399875;19;19974;-73
2023/07/23 04:15:04;;;;;;;12.65;5.80;;;23.90;99.90;;;;;;7400747;19;19915;-73
2023/07/23 04:17:30;;;;;;;11.30;5.32;;;23.90;99.90;;;;;;7401265;19;19914;-73
2023/07/23 04:19:56;;;;;;;13.27;6.00;;;23.90;99.90;;;;;;7399917;19;19918;-73
2023/07/23 04:22:22;;;;;;;13.70;5.90;;;23.90;99.90;;;;;;7396294;19;22468;-73
2023/07/23 04:24:47;;;;;;;13.13;5.82;;;23.90;99.90;;;;;;7398584;19;19929;-73
2023/07/23 04:27:14;;;;;;;10.98;5.50;;;23.90;99.90;;;;;;7398308;19;20493;-73
2023/07/23 04:29:39;;;;;;;15.05;6.72;;;23.80;99.90;;;;;;7398507;19;20823;-73
2023/07/23 04:32:05;;;;;;;10.52;6.43;;;23.80;99.90;;;;;;7397023;19;19966;-73
2023/07/23 04:34:31;;;;;;;13.10;6.22;;;23.80;99.90;;;;;;7397297;19;19926;-73
2023/07/23 04:36:57;;;;;;;12.20;6.90;;;23.80;99.90;;;;;;7398569;19;19918;-73
2023/07/23 04:39:23;;;;;;;12.07;6.50;;;23.80;99.90;;;;;;7398926;19;19926;-74
2023/07/23 04:41:49;;;;;;;14.00;6.32;;;23.80;99.90;;;;;;7398459;19;19922;-73
2023/07/23 04:44:15;;;;;;;12.55;6.45;;;23.80;99.90;;;;;;7398421;19;19954;-73
2023/07/23 04:46:41;;;;;;;14.10;6.55;;;23.90;99.90;;;;;;7397937;19;19910;-73
2023/07/23 04:49:07;;;;;;;15.77;6.30;;;23.90;99.90;;;;;;7397111;19;19923;-74
2023/07/23 04:51:32;;;;;;;13.55;6.38;;;23.90;99.90;;;;;;7400034;19;19974;-73
2023/07/23 04:53:58;;;;;;;11.65;5.95;;;23.90;99.90;;;;;;7398497;19;19918;-73
2023/07/23 04:56:24;;;;;;;12.38;6.53;;;23.90;99.90;;;;;;7397071;19;19911;-73
2023/07/23 04:58:50;;;;;;;12.48;6.82;;;24.00;99.90;;;;;;7398949;19;20239;-73
2023/07/23 05:01:15;;;;;;;10.15;5.70;;;24.00;99.90;;;;;;7394499;19;20826;-73
2023/07/23 05:03:41;;;;;;;13.63;5.60;;;24.00;99.90;;;;;;7398894;19;19930;-72
2023/07/23 05:06:07;;;;;;;11.00;6.30;;;24.10;99.90;;;;;;7363414;19;20296;-73
2023/07/23 05:08:34;;;;;;;12.70;6.45;;;24.10;99.90;;;;;;7399043;19;19970;-73
2023/07/23 05:11:04;;;;;;;17.42;6.13;;;24.10;99.90;;;;;;7403898;19;19918;-73
2023/07/23 05:13:30;;;;;;;12.77;5.82;;;24.20;99.90;;;;;;7403251;19;20014;-73
2023/07/23 05:16:02;;;;;;;12.05;5.82;;;24.20;99.90;;;;;;7404574;19;19927;-73
2023/07/23 05:18:29;;;;;;;14.85;5.53;;;24.20;99.90;;;;;;7401689;19;19922;-74
2023/07/23 05:20:55;;;;;;;12.98;5.72;;;24.30;99.90;;;;;;7404532;19;19918;-74
2023/07/23 05:23:21;;;;;;;10.13;5.15;;;24.40;99.90;;;;;;7403172;19;20267;-74
2023/07/23 05:25:47;;;;;;;9.68;5.53;;;24.50;99.90;;;;;;7405371;19;20317;-75
2023/07/23 05:28:14;;;;;;;16.17;6.18;;;24.60;99.90;;;;;;7403781;19;19918;-73
2023/07/23 05:30:40;;;;;;;12.30;5.50;;;24.70;99.60;;;;;;7403043;19;19919;-74
2023/07/23 05:33:06;;;;;;;11.65;5.18;;;24.70;98.70;;;;;;7402165;19;20453;-74
2023/07/23 05:35:32;;;;;;;15.27;5.78;;;24.80;98.30;;;;;;7402400;19;19926;-72
2023/07/23 05:37:58;;;;;;;11.55;5.88;;;24.80;98.20;;;;;;7373768;19;19922;-74
2023/07/23 05:40:23;;;;;;;13.43;5.22;;;24.90;98.10;;;;;;7369918;19;19972;-73
2023/07/23 05:42:54;;;;;;;11.10;5.47;;;25.00;97.90;;;;;;7403745;19;19939;-72
2023/07/23 05:45:19;;;;;;;13.05;5.90;;;25.10;97.80;;;;;;7402883;19;19907;-73
2023/07/23 05:47:45;;;;;;;13.20;5.80;;;25.10;97.60;;;;;;7404350;19;19911;-74
2023/07/23 05:50:11;;;;;;;12.15;5.25;;;25.20;97.40;;;;;;7401530;19;19936;-72
2023/07/23 05:52:37;;;;;;;10.95;5.20;;;25.20;97.20;;;;;;7404491;19;19922;-74
2023/07/23 05:55:03;;;;;;;12.20;5.82;;;25.30;97.20;;;;;;7400717;19;19949;-73
2023/07/23 05:57:28;;;;;;;11.98;6.03;;;25.30;97.00;;;;;;7405993;19;19955;-73
2023/07/23 05:59:54;;;;;;;13.82;6.15;;;25.30;96.80;;;;;;7403472;19;20032;-75
2023/07/23 06:02:20;;;;;;;15.90;5.65;;;25.30;96.40;;;;;;7402368;19;19918;-74
2023/07/23 06:04:46;;;;;;;12.50;5.40;;;25.30;96.20;;;;;;7404636;19;19918;-74
2023/07/23 06:07:11;;;;;;;12.88;5.28;;;25.40;95.60;;;;;;7402189;19;20383;-73
2023/07/23 06:09:37;;;;;;;13.07;5.45;;;25.50;95.10;;;;;;7404620;19;19999;-74
2023/07/23 06:12:03;;;;;;;14.38;5.55;;;25.50;94.50;;;;;;7402255;19;19925;-73
2023/07/23 06:14:29;;;;;;;11.48;5.20;;;25.60;93.40;;;;;;7403101;19;19925;-74
2023/07/23 06:16:56;;;;;;;11.60;5.20;;;25.70;92.80;;;;;;7402825;19;19915;-74
2023/07/23 06:19:22;;;;;;;10.75;5.40;;;25.70;92.40;;;;;;7402325;19;19952;-74
2023/07/23 06:21:48;;;;;;;13.13;5.22;;;25.80;92.20;;;;;;7402865;19;19930;-73
2023/07/23 06:24:14;;;;;;;10.30;4.88;;;25.90;92.00;;;;;;7403055;19;20617;-74
2023/07/23 06:26:40;;;;;;;11.63;4.78;;;26.00;91.90;;;;;;7402159;19;19914;-73
2023/07/23 06:29:05;;;;;;;16.00;5.65;;;25.80;91.90;;;;;;7400207;19;19922;-73
2023/07/23 06:31:31;;;;;;;9.73;4.97;;;25.90;91.70;;;;;;7402930;19;19925;-73
2023/07/23 06:33:58;;;;;;;14.23;5.50;;;26.00;91.30;;;;;;7401426;19;19945;-74
2023/07/23 06:36:24;;;;;;;9.88;5.70;;;26.00;91.20;;;;;;7400901;19;19919;-74
2023/07/23 06:38:50;;;;;;;11.10;6.00;;;26.10;91.50;;;;;;7403942;19;19958;-73
2023/07/23 06:41:16;;;;;;;12.13;5.75;;;26.10;91.50;;;;;;7398246;19;19910;-73
2023/07/23 06:43:41;;;;;;;13.93;5.35;;;26.00;92.00;;;;;;7403588;19;19922;-74
2023/07/23 06:46:07;;;;;;;13.07;5.07;;;26.10;92.20;;;;;;7400144;19;19929;-74
2023/07/23 06:48:33;;;;;;;11.95;6.63;;;26.10;92.40;;;;;;7404032;19;20247;-74
2023/07/23 06:50:59;;;;;;;12.85;6.05;;;26.10;92.20;;;;;;7371627;19;20326;-73
2023/07/23 06:53:25;;;;;;;13.32;5.20;;;26.20;92.70;;;;;;7400566;19;19947;-75
2023/07/23 06:56:05;;;;;;;10.63;4.80;;;26.30;92.10;;;;;;7370089;19;19925;-73
2023/07/23 06:58:34;;;;;;;12.90;5.47;;;26.20;92.00;;;;;;7400744;19;19922;-74
2023/07/23 07:01:00;;;;;;;12.35;5.88;;;26.10;92.20;;;;;;7379968;19;19937;-73
2023/07/23 07:03:26;;;;;;;14.00;6.22;;;26.20;92.10;;;;;;7399405;19;20266;-74
2023/07/23 07:05:52;;;;;;;13.82;5.55;;;26.20;92.40;;;;;;7403052;19;20347;-74
2023/07/23 07:08:18;;;;;;;13.73;5.50;;;26.30;92.30;;;;;;7400474;19;19915;-74
2023/07/23 07:10:44;;;;;;;11.75;5.55;;;26.30;92.00;;;;;;7401405;19;19929;-73
2023/07/23 07:13:10;;;;;;;11.20;5.25;;;26.40;91.80;;;;;;7400246;19;19926;-73
2023/07/23 07:15:35;;;;;;;12.05;5.78;;;26.30;91.20;;;;;;7400193;19;19917;-73
2023/07/23 07:18:01;;;;;;;13.38;4.95;;;26.40;91.10;;;;;;7403013;19;20042;-74
2023/07/23 07:20:29;;;;;;;12.13;5.25;;;26.60;90.60;;;;;;7369050;19;19922;-74
2023/07/23 07:22:55;;;;;;;13.95;5.22;;;26.60;90.40;;;;;;7403949;19;19948;-73
2023/07/23 07:25:20;;;;;;;15.07;6.15;;;26.60;90.40;;;;;;7400541;19;19954;-73
2023/07/23 07:27:46;;;;;;;11.20;5.43;;;26.70;88.80;;;;;;7400603;19;19922;-73
2023/07/23 07:30:13;;;;;;;11.93;5.40;;;26.60;89.90;;;;;;7398065;19;20347;-73
2023/07/23 07:32:39;;;;;;;13.27;5.07;;;26.70;88.70;;;;;;7400825;19;19915;-73
2023/07/23 07:35:05;;;;;;;;;;;26.70;87.10;;;;;;7401789;19;19918;-74
2023/07/23 07:37:31;;;;;;;14.73;5.72;;;26.90;86.40;;;;;;7399922;19;19914;-73
2023/07/23 07:39:57;;;;;;;13.13;6.13;;;26.90;86.00;;;;;;7400566;19;19915;-73
2023/07/23 07:42:22;;;;;;;11.45;4.90;;;26.80;84.70;;;;;;7400519;19;19930;-74
2023/07/23 07:44:48;;;;;;;14.57;5.38;;;27.00;86.40;;;;;;7400656;19;19978;-73
2023/07/23 07:47:15;;;;;;;13.20;5.43;;;27.20;85.40;;;;;;7401119;19;20339;-74
2023/07/23 07:49:41;;;;;;;15.98;5.78;;;27.20;84.50;;;;;;7400760;19;19914;-74
2023/07/23 07:52:07;;;;;;;14.05;5.75;;;27.20;84.80;;;;;;7400424;19;19915;-74
2023/07/23 07:54:36;;;;;;;17.40;6.07;;;27.30;85.50;;;;;;7402725;19;19931;-73
2023/07/23 07:57:03;;;;;;;14.82;5.97;;;27.40;84.50;;;;;;7401654;19;19914;-74
2023/07/23 07:59:29;;;;;;;12.02;5.90;;;27.40;84.70;;;;;;7397741;19;19915;-74
2023/07/23 08:01:55;;;;;;;;;;;27.20;84.50;;;;;;7403970;19;19947;-75
2023/07/23 08:04:21;;;;;;;14.15;6.07;;;27.40;84.00;;;;;;7401037;19;20244;-74
2023/07/23 08:06:47;;;;;;;15.38;5.90;;;27.50;84.50;;;;;;7402256;19;19914;-73
2023/07/23 08:09:16;;;;;;;15.77;6.20;;;27.60;83.40;;;;;;7400055;19;19914;-74
2023/07/23 08:11:43;;;;;;;10.77;4.85;;;27.70;82.10;;;;;;7397913;19;19914;-73
2023/07/23 08:14:09;;;;;;;9.23;4.70;;;27.50;82.00;;;;;;7377913;19;19918;-73
2023/07/23 08:16:37;;;;;;;12.60;5.65;;;27.80;81.30;;;;;;7398308;19;19918;-74
2023/07/23 08:19:03;;;;;;;17.55;5.32;;;27.80;81.60;;;;;;7401335;19;19986;-73
2023/07/23 08:21:29;;;;;;;11.98;5.53;;;27.70;81.10;;;;;;7399113;19;19949;-74
2023/07/23 08:23:55;;;;;;;11.98;5.78;;;27.90;81.00;;;;;;7401448;19;19922;-73
2023/07/23 08:26:24;;;;;;;16.65;5.68;;;28.10;80.20;;;;;;7395810;19;19987;-73
2023/07/23 08:28:58;;;;;;;13.75;5.85;;;28.40;79.30;;;;;;7399272;19;19927;-72
2023/07/23 08:31:24;;;;;;;12.93;7.13;;;28.40;78.70;;;;;;7399207;19;20354;-74
2023/07/23 08:33:52;;;;;;;11.50;6.53;;;28.10;78.80;;;;;;7401741;19;20340;-74
2023/07/23 08:36:18;;;;;;;12.77;5.57;;;28.10;79.60;;;;;;7399145;19;20501;-74
2023/07/23 08:38:44;;;;;;;13.38;5.50;;;28.10;79.20;;;;;;7397717;19;20450;-74
2023/07/23 08:41:38;;;;;;;15.57;6.18;;;28.40;78.70;;;;;;7395369;19;19951;-73
2023/07/23 08:44:41;;;;;;;12.80;5.60;;;28.40;78.00;;;;;;7399581;19;19934;-74
2023/07/23 08:47:12;;;;;;;13.27;5.85;;;28.70;77.50;;;;;;7401566;19;20351;-74
2023/07/23 08:49:42;;;;;;;12.15;5.95;;;30.20;73.90;;;;;;7406551;19;19926;-73
2023/07/23 08:52:11;;;;;;;15.23;5.65;;;31.20;69.80;;;;;;7403999;19;19946;-74
2023/07/23 08:54:39;;;;;;;14.80;6.47;;;30.70;70.00;;;;;;7406866;19;19923;-73
2023/07/23 08:57:06;;;;;;;12.40;6.32;;;31.40;69.10;;;;;;7400440;19;20335;-74
2023/07/23 08:59:33;;;;;;;13.73;7.28;;;31.70;68.40;;;;;;7404526;19;20270;-74
2023/07/23 09:02:02;;;;;;;17.17;7.43;;;31.90;66.90;;;;;;7402824;19;20300;-75
2023/07/23 09:04:29;;;;;;;13.30;6.30;;;32.40;65.90;;;;;;7405563;19;20348;-74
2023/07/23 09:06:57;;;;;;;16.23;6.75;;;32.00;65.30;;;;;;7405124;19;20319;-75
2023/07/23 09:09:24;;;;;;;15.63;6.28;;;31.10;66.80;;;;;;7403777;19;19931;-74
2023/07/23 09:11:50;;;;;;;12.70;6.13;;;31.80;66.40;;;;;;7403653;19;19930;-74
2023/07/23 09:14:16;;;;;;;13.77;5.95;;;32.20;65.80;;;;;;7406076;19;19915;-74
2023/07/23 09:16:44;;;;;;;11.55;6.22;;;33.00;64.40;;;;;;7406535;19;19918;-74
2023/07/23 09:19:12;;;;;;;12.68;6.07;;;33.90;62.40;;;;;;7404080;19;19911;-73
2023/07/23 09:21:40;;;;;;;11.05;5.85;;;33.80;61.90;;;;;;7401447;19;20601;-74
2023/07/23 09:24:07;;;;;;;12.57;8.30;;;33.50;62.70;;;;;;7405987;19;20247;-74
2023/07/23 09:26:36;;;;;;;9.77;5.70;;;33.40;62.90;;;;;;7405460;19;20566;-74
2023/07/23 09:29:07;;;;;;;10.88;6.55;;;34.00;62.20;;;;;;7405973;19;19930;-74
2023/07/23 09:31:33;;;;;;;12.38;5.88;;;33.70;62.40;;;;;;7405931;19;19939;-74
2023/07/23 09:34:01;;;;;;;13.00;6.70;;;34.50;61.30;;;;;;7405349;19;19918;-74
2023/07/23 09:36:28;;;;;;;11.40;5.90;;;34.80;60.00;;;;;;7401089;19;19943;-74
2023/07/23 09:39:01;;;;;;;12.40;8.65;;;35.50;58.70;;;;;;7372876;19;20358;-73
2023/07/23 09:41:31;;;;;;;12.80;6.90;;;35.30;58.70;;;;;;7402213;19;19922;-73
2023/07/23 09:44:23;;;;;;;11.15;6.22;;;34.80;59.20;;;;;;7404166;19;19910;-74
2023/07/23 09:46:49;;;;;;;11.93;6.13;;;35.30;58.60;;;;;;7404440;19;19938;-75
2023/07/23 09:49:22;;;;;;;11.10;7.43;;;35.80;57.70;;;;;;7405026;19;20258;-75
2023/07/23 09:51:52;;;;;;;12.23;6.40;;;36.20;56.60;;;;;;7402299;19;19963;-74
2023/07/23 09:54:17;;;;;;;12.65;6.45;;;36.50;56.10;;;;;;7400641;19;19924;-75
2023/07/23 09:56:45;;;;;;;11.95;6.85;;;35.90;55.90;;;;;;7404115;19;19926;-75
2023/07/23 09:59:12;;;;;;;11.85;6.15;;;35.00;57.30;;;;;;7403956;19;19935;-75
2023/07/23 10:01:39;;;;;;;11.98;6.03;;;33.90;60.00;;;;;;7402058;19;19915;-75
2023/07/23 10:04:05;;;;;;;13.02;6.45;;;34.40;60.10;;;;;;7401914;19;19925;-74
2023/07/23 10:06:31;;;;;;;11.60;5.32;;;34.90;59.70;;;;;;7402623;19;19914;-75
2023/07/23 10:08:57;;;;;;;14.00;6.68;;;35.70;58.00;;;;;;7402209;19;20639;-74
2023/07/23 10:11:24;;;;;;;13.52;6.45;;;34.30;59.20;;;;;;7402708;19;19927;-75
2023/07/23 10:13:51;;;;;;;13.45;6.05;;;33.20;61.80;;;;;;7403565;19;19928;-73
2023/07/23 10:16:34;;;;;;;14.07;5.85;;;33.40;62.20;;;;;;7402580;19;19994;-74
2023/07/23 10:19:04;;;;;;;12.65;5.72;;;33.60;61.80;;;;;;7403371;19;19962;-74
2023/07/23 10:21:32;;;;;;;12.63;5.82;;;33.30;61.70;;;;;;7403600;19;19936;-74
2023/07/23 10:23:59;;;;;;;13.65;6.55;;;33.30;62.80;;;;;;7401737;19;19922;-74
2023/07/23 10:26:27;;;;;;;10.93;5.38;;;33.70;62.50;;;;;;7404021;19;20328;-74
2023/07/23 10:29:09;;;;;;;14.05;4.80;;;34.40;61.60;;;;;;7403565;19;19919;-75
2023/07/23 10:31:35;;;;;;;11.30;5.65;;;32.00;63.60;;;;;;7406235;19;19922;-74
2023/07/23 10:34:21;;;;;;;13.02;5.72;;;33.00;64.30;;;;;;7403650;19;19939;-74
2023/07/23 10:37:18;;;;;;;14.38;5.45;;;32.00;65.40;;;;;;7402600;19;19927;-73
2023/07/23 10:39:49;;;;;;;12.93;5.47;;;32.90;64.80;;;;;;7399721;19;19918;-74
2023/07/23 10:42:38;;;;;;;11.10;5.75;;;33.30;63.10;;;;;;7400142;19;19919;-75
2023/07/23 10:45:24;;;;;;;12.93;5.80;;;32.60;64.00;;;;;;7400072;19;19918;-74
2023/07/23 10:47:55;;;;;;;17.25;6.25;;;32.70;64.30;;;;;;7401036;19;19925;-74
2023/07/23 10:50:24;;;;;;;12.40;5.82;;;32.30;65.10;;;;;;7397646;19;20617;-74
2023/07/23 10:52:52;;;;;;;13.07;5.65;;;32.00;65.80;;;;;;7402401;19;19929;-73
2023/07/23 10:55:40;;;;;;;13.50;5.15;;;32.40;66.00;;;;;;7402955;19;19915;-73
2023/07/23 10:58:14;;;;;;;13.27;5.10;;;32.90;64.50;;;;;;7400827;19;19917;-74
2023/07/23 11:00:55;;;;;;;15.18;6.68;;;33.10;64.80;;;;;;7402006;19;20264;-74
2023/07/23 11:03:23;;;;;;;18.90;7.07;;;33.30;66.20;;;;;;7401039;19;20246;-74
2023/07/23 11:05:50;;;;;;;19.05;5.78;;;32.70;64.40;;;;;;7400315;19;19922;-74
2023/07/23 11:08:17;;;;;;;14.63;5.03;;;32.20;67.20;;;;;;7401277;19;20081;-74
2023/07/23 11:10:56;;;;;;;13.50;4.70;;;32.60;66.20;;;;;;7400958;19;19933;-74
2023/07/23 11:13:42;;;;;;;15.75;7.35;;;32.60;67.30;;;;;;7401238;19;19941;-74
2023/07/23 11:16:08;;;;;;;12.65;5.13;;;31.70;68.30;;;;;;7369737;19;19958;-74
2023/07/23 11:18:34;;;;;;;15.63;5.72;;;32.40;67.60;;;;;;7403181;19;19923;-76
2023/07/23 11:21:04;;;;;;;16.20;7.47;;;32.50;66.40;;;;;;7402625;19;20337;-74
2023/07/23 11:23:31;;;;;;;12.80;5.20;;;32.00;67.50;;;;;;7400314;19;19922;-74
2023/07/23 11:25:57;;;;;;;13.00;4.90;;;32.70;66.40;;;;;;7370051;19;19918;-74
2023/07/23 11:28:24;;;;;;;13.93;4.88;;;32.80;66.10;;;;;;7400087;19;19926;-74
2023/07/23 11:30:53;;;;;;;13.73;5.03;;;32.60;66.50;;;;;;7399956;19;19947;-73
2023/07/23 11:33:21;;;;;;;18.33;6.07;;;32.90;65.90;;;;;;7399778;19;19914;-74
2023/07/23 11:35:49;;;;;;;17.08;6.07;;;31.80;66.40;;;;;;7399658;19;19949;-74
2023/07/23 11:38:15;;;;;;;16.35;5.00;;;32.60;65.80;;;;;;7400350;19;19939;-73
2023/07/23 11:40:42;;;;;;;;;;;32.10;67.40;;;;;;7402531;19;19918;-74
2023/07/23 11:43:09;;;;;;;13.77;4.80;;;31.30;70.00;;;;;;7400586;19;19919;-73
2023/07/23 11:45:45;;;;;;;11.98;5.07;;;32.00;69.50;;;;;;7399281;19;19919;-73
2023/07/23 11:48:19;;;;;;;11.80;4.88;;;33.00;66.80;;;;;;7399018;19;19918;-73
2023/07/23 11:50:46;;;;;;;12.15;4.78;;;33.10;66.60;;;;;;7400575;19;19936;-73
2023/07/23 11:53:12;;;;;;;14.60;6.13;;;32.90;65.60;;;;;;7396915;19;19914;-73
2023/07/23 11:55:38;;;;;;;16.58;6.13;;;32.60;63.50;;;;;;7402563;19;20211;-74
2023/07/23 11:58:04;;;;;;;14.85;5.88;;;32.80;64.20;;;;;;7399291;19;19914;-73
2023/07/23 12:00:39;;;;;;;;;;;32.80;64.90;;;;;;7403565;19;19935;-73
2023/07/23 12:03:09;;;;;;;17.58;5.82;;;32.30;65.20;;;;;;7397691;19;19922;-73
2023/07/23 12:05:39;;;;;;;13.50;5.45;;;32.90;65.00;;;;;;7398632;19;19922;-74
2023/07/23 12:08:05;;;;;;;13.40;6.93;;;33.50;63.80;;;;;;7395650;19;19918;-74
2023/07/23 12:10:33;;;;;;;11.00;5.20;;;33.80;61.80;;;;;;7399992;19;19919;-73
2023/07/23 12:13:10;;;;;;;15.73;6.70;;;33.50;62.90;;;;;;7376658;19;19911;-74
2023/07/23 12:15:47;;;;;;;13.35;6.43;;;33.50;64.00;;;;;;7397394;19;19918;-73
2023/07/23 12:18:13;;;;;;;14.02;5.32;;;32.60;65.70;;;;;;7366914;19;19918;-73
2023/07/23 12:20:40;;;;;;;13.40;5.82;;;33.60;64.60;;;;;;7400301;19;20335;-73
2023/07/23 12:23:05;;;;;;;13.65;6.70;;;33.20;64.40;;;;;;7395991;19;20326;-73
2023/07/23 12:25:32;;;;;;;10.57;5.32;;;33.70;64.20;;;;;;7397970;19;19931;-73
2023/07/23 12:27:59;;;;;;;21.17;11.10;;;33.20;66.10;;;;;;7399581;19;19939;-73
2023/07/23 12:30:24;;;;;;;13.18;5.25;;;32.90;65.80;;;;;;7397834;19;19943;-74
2023/07/23 12:32:50;;;;;;;33.55;23.10;;;32.90;67.60;;;;;;7397845;19;19926;-74
2023/07/23 12:35:16;;;;;;;17.38;10.27;;;33.90;64.00;;;;;;7398421;19;19930;-73
2023/07/23 12:37:42;;;;;;;43.28;30.73;;;34.30;63.70;;;;;;7396182;19;19922;-73
2023/07/23 12:40:09;;;;;;;15.05;6.05;;;34.70;63.60;;;;;;7398506;19;19923;-73
2023/07/23 12:42:36;;;;;;;12.27;5.32;;;33.80;63.80;;;;;;7396994;19;19926;-73